Terminal Aerodrome Forecast
Issued by NWS

Home | Current Version | Previous Version | Text Only | Print | Product List | Glossary On
Versions: 1 2 3 4 5 6 7 8 9 10 11 12 13 14 15
000
FTUS46 KSEW 281500 AAB
TAFBLI
TAF AMD
KBLI 281511Z 2815/2912 33003KT 1/2SM FG BKN001 BKN012 OVC035
      TEMPO 2815/2816 5SM BR SCT001 SCT016 BKN035
     FM281600 01007KT P6SM BKN025
      TEMPO 2816/2818 1/2SM FG BKN003
     FM290000 01007KT P6SM BKN050
     FM290600 01014G22KT P6SM SCT050 BKN130=

USA.gov is the U.S. government's official web portal to all federal, state and local government web resources and services.